Terminal Aerodrome Forecast
Issued by NWS Cleveland, OH

Home | Current Version | Previous Version | Graphics & Text | Print | Product List | Glossary On
Versions: 1 2 3 4 5 6 7 8 9 10 11 12 13 14 15 16 17 18 19
000
FTUS41 KCLE 292300
TAFTOL
TAF
KTOL 292320Z 3000/3024 29010KT 2SM -SN BR OVC015
     FM300100 29015G25KT 4SM BR OVC015
     FM300400 30015G25KT 6SM BR OVC025
     FM300700 30015G25KT P6SM OVC050
     FM301200 33015G25KT P6SM SKC
     FM302000 31009KT P6SM SCT250=

USA.gov is the U.S. government's official web portal to all federal, state and local government web resources and services.